Time,TemperatureF,DewpointF,PressureIn,WindDirection,WindDirectionDegrees,WindSpeedMPH,WindSpeedGustMPH,Humidity,HourlyPrecipIn,Conditions,Clouds,dailyrainin,SolarRadiationWatts/m^2,SoftwareType,DateUTC
2013-03-20 00:05:00,39.0,30.0,29.71,North,360,0.0,0.0,71,0.00,,,0.02,0,weatherlink.com 1.10,2013-03-19 23:05:00,
2013-03-20 00:20:00,38.5,30.0,29.71,WSW,242,0.0,1.0,72,0.00,,,0.02,0,weatherlink.com 1.10,2013-03-19 23:20:00,
2013-03-20 00:35:00,38.4,30.0,29.71,SW,227,1.0,3.0,73,0.00,,,0.02,0,weatherlink.com 1.10,2013-03-19 23:35:00,
2013-03-20 00:50:00,39.5,31.0,29.71,North,360,0.0,4.0,72,0.00,,,0.00,0,weatherlink.com 1.10,2013-03-19 23:50:00,
2013-03-20 01:05:00,39.9,31.0,29.72,WSW,240,0.0,3.0,70,0.00,,,0.00,0,weatherlink.com 1.10,2013-03-20 00:05:00,
2013-03-20 01:20:00,39.0,30.0,29.72,North,360,0.0,0.0,71,0.00,,,0.00,0,weatherlink.com 1.10,2013-03-20 00:20:00,
2013-03-20 01:35:00,38.3,30.0,29.72,WSW,238,0.0,0.0,73,0.00,,,0.00,0,weatherlink.com 1.10,2013-03-20 00:35:00,
2013-03-20 02:05:00,37.2,30.0,29.72,WSW,240,0.0,1.0,76,0.00,,,0.00,0,weatherlink.com 1.10,2013-03-20 01:05:00,
2013-03-20 02:20:00,37.5,31.0,29.74,WSW,239,0.0,1.0,78,0.00,,,0.00,0,weatherlink.com 1.10,2013-03-20 01:20:00,
2013-03-20 02:35:00,41.4,34.0,29.74,West,275,0.0,4.0,75,0.00,,,0.00,0,weatherlink.com 1.10,2013-03-20 01:35:00,
2013-03-20 02:51:00,43.0,35.0,29.73,North,360,0.0,2.0,73,0.00,,,0.00,0,weatherlink.com 1.10,2013-03-20 01:51:00,
2013-03-20 03:06:00,43.5,35.0,29.73,NNE,20,6.0,8.0,73,0.00,,,0.00,0,weatherlink.com 1.10,2013-03-20 02:06:00,
2013-03-20 03:21:00,42.2,34.0,29.72,North,5,0.0,3.0,72,0.00,,,0.00,0,weatherlink.com 1.10,2013-03-20 02:21:00,
2013-03-20 03:36:00,41.0,33.0,29.73,North,5,0.0,3.0,72,0.00,,,0.00,0,weatherlink.com 1.10,2013-03-20 02:36:00,
2013-03-20 03:51:00,39.9,33.0,29.74,WSW,238,2.0,3.0,75,0.00,,,0.00,0,weatherlink.com 1.10,2013-03-20 02:51:00,
2013-03-20 04:06:00,39.8,33.0,29.74,SW,233,0.0,3.0,77,0.00,,,0.00,0,weatherlink.com 1.10,2013-03-20 03:06:00,
2013-03-20 04:21:00,39.8,33.0,29.74,North,360,0.0,1.0,77,0.00,,,0.00,0,weatherlink.com 1.10,2013-03-20 03:21:00,
2013-03-20 04:51:00,39.8,33.0,29.74,NW,306,0.0,2.0,78,0.00,,,0.00,0,weatherlink.com 1.10,2013-03-20 03:51:00,
2013-03-20 05:06:00,39.5,33.0,29.73,WSW,244,2.0,3.0,78,0.00,,,0.00,0,weatherlink.com 1.10,2013-03-20 04:06:00,
2013-03-20 05:21:00,39.2,33.0,29.73,WSW,249,0.0,2.0,78,0.00,,,0.00,0,weatherlink.com 1.10,2013-03-20 04:21:00,
2013-03-20 05:36:00,38.2,32.0,29.74,WSW,251,0.0,2.0,79,0.00,,,0.00,0,weatherlink.com 1.10,2013-03-20 04:36:00,
2013-03-20 05:51:00,37.4,32.0,29.74,WSW,252,0.0,0.0,80,0.00,,,0.00,5,weatherlink.com 1.10,2013-03-20 04:51:00,
2013-03-20 06:36:00,42.9,36.0,29.75,WSW,251,0.0,2.0,75,0.00,,,0.00,93,weatherlink.com 1.10,2013-03-20 05:36:00,
2013-03-20 06:51:00,43.4,36.0,29.75,SSW,211,3.0,4.0,74,0.00,,,0.00,125,weatherlink.com 1.10,2013-03-20 05:51:00,
2013-03-20 07:06:00,43.6,36.0,29.75,SSW,201,3.0,4.0,75,0.00,,,0.00,193,weatherlink.com 1.10,2013-03-20 06:06:00,
2013-03-20 07:21:00,44.3,37.0,29.74,ESE,111,1.0,5.0,75,0.00,,,0.00,251,weatherlink.com 1.10,2013-03-20 06:21:00,
2013-03-20 08:06:00,46.7,38.0,29.75,South,173,2.0,5.0,71,0.00,,,0.00,385,weatherlink.com 1.10,2013-03-20 07:06:00,
2013-03-20 08:21:00,50.2,39.0,29.75,SSW,211,1.0,4.0,66,0.00,,,0.00,431,weatherlink.com 1.10,2013-03-20 07:21:00,
2013-03-20 08:36:00,49.6,38.0,29.75,East,85,0.0,4.0,65,0.00,,,0.00,468,weatherlink.com 1.10,2013-03-20 07:36:00,
2013-03-20 09:22:00,53.4,39.0,29.75,NNE,31,2.0,6.0,58,0.00,,,0.00,568,weatherlink.com 1.10,2013-03-20 08:22:00,
2013-03-20 09:37:00,52.6,38.0,29.76,ENE,65,2.0,7.0,59,0.00,,,0.00,599,weatherlink.com 1.10,2013-03-20 08:37:00,
2013-03-20 09:52:00,54.7,37.0,29.76,South,186,3.0,6.0,52,0.00,,,0.00,628,weatherlink.com 1.10,2013-03-20 08:52:00,
2013-03-20 10:07:00,56.5,37.0,29.75,North,360,0.0,6.0,49,0.00,,,0.00,645,weatherlink.com 1.10,2013-03-20 09:07:00,
2013-03-20 10:52:00,56.9,38.0,29.75,SE,126,0.0,7.0,50,0.00,,,0.00,693,weatherlink.com 1.10,2013-03-20 09:52:00,
2013-03-20 11:07:00,57.0,37.0,29.75,South,169,5.0,7.0,48,0.00,,,0.00,712,weatherlink.com 1.10,2013-03-20 10:07:00,
2013-03-20 11:22:00,61.0,36.0,29.75,North,360,0.0,7.0,39,0.00,,,0.00,722,weatherlink.com 1.10,2013-03-20 10:22:00,
2013-03-20 11:52:00,61.4,35.0,29.75,WSW,245,6.0,8.0,38,0.00,,,0.00,729,weatherlink.com 1.10,2013-03-20 10:52:00,
2013-03-20 12:22:00,59.1,37.0,29.75,SSW,208,1.0,9.0,44,0.00,,,0.00,603,weatherlink.com 1.10,2013-03-20 11:22:00,
2013-03-20 12:37:00,59.2,35.0,29.74,ENE,69,3.0,7.0,41,0.00,,,0.00,693,weatherlink.com 1.10,2013-03-20 11:37:00,
2013-03-20 13:22:00,58.8,36.0,29.74,SSW,202,4.0,13.0,42,0.00,,,0.00,615,weatherlink.com 1.10,2013-03-20 12:22:00,
2013-03-20 13:52:00,59.0,39.0,29.74,North,360,4.0,8.0,48,0.00,,,0.00,559,weatherlink.com 1.10,2013-03-20 12:52:00,
2013-03-20 14:07:00,57.7,38.0,29.74,SSW,213,7.0,13.0,49,0.00,,,0.00,283,weatherlink.com 1.10,2013-03-20 13:07:00,
2013-03-20 14:22:00,58.4,38.0,29.74,South,186,4.0,11.0,47,0.00,,,0.00,248,weatherlink.com 1.10,2013-03-20 13:22:00,
2013-03-20 14:37:00,59.1,37.0,29.73,SW,214,6.0,9.0,44,0.00,,,0.00,439,weatherlink.com 1.10,2013-03-20 13:37:00,
2013-03-20 14:52:00,58.8,35.0,29.74,North,360,7.0,13.0,41,0.00,,,0.00,378,weatherlink.com 1.10,2013-03-20 13:52:00,
2013-03-20 15:07:00,58.6,35.0,29.73,SW,235,3.0,13.0,41,0.00,,,0.00,142,weatherlink.com 1.10,2013-03-20 14:07:00,
2013-03-20 15:22:00,58.0,36.0,29.73,SW,227,7.0,10.0,44,0.00,,,0.00,137,weatherlink.com 1.10,2013-03-20 14:22:00,
2013-03-20 15:37:00,57.9,36.0,29.72,SSW,192,7.0,12.0,44,0.00,,,0.00,128,weatherlink.com 1.10,2013-03-20 14:37:00,
2013-03-20 15:52:00,57.8,37.0,29.73,WSW,251,5.0,14.0,46,0.00,,,0.00,111,weatherlink.com 1.10,2013-03-20 14:52:00,
2013-03-20 16:07:00,57.6,38.0,29.72,SW,226,3.0,11.0,48,0.00,,,0.00,100,weatherlink.com 1.10,2013-03-20 15:07:00,
2013-03-20 16:22:00,57.0,38.0,29.72,SSW,204,5.0,11.0,50,0.00,,,0.00,88,weatherlink.com 1.10,2013-03-20 15:22:00,
2013-03-20 16:37:00,56.9,38.0,29.72,SSW,213,3.0,9.0,50,0.00,,,0.00,60,weatherlink.com 1.10,2013-03-20 15:37:00,
2013-03-20 16:52:00,56.6,38.0,29.73,SW,235,2.0,8.0,50,0.00,,,0.00,54,weatherlink.com 1.10,2013-03-20 15:52:00,
2013-03-20 17:07:00,56.3,38.0,29.73,SW,222,5.0,9.0,50,0.00,,,0.00,39,weatherlink.com 1.10,2013-03-20 16:07:00,
2013-03-20 17:22:00,56.1,38.0,29.73,SW,228,0.0,3.0,52,0.00,,,0.00,23,weatherlink.com 1.10,2013-03-20 16:22:00,
2013-03-20 17:37:00,55.6,38.0,29.73,SW,223,1.0,4.0,53,0.00,,,0.00,9,weatherlink.com 1.10,2013-03-20 16:37:00,
2013-03-20 17:52:00,55.3,38.0,29.73,SSW,211,3.0,6.0,53,0.00,,,0.00,0,weatherlink.com 1.10,2013-03-20 16:52:00,
2013-03-20 18:07:00,55.1,38.0,29.73,SW,227,0.0,6.0,53,0.00,,,0.00,0,weatherlink.com 1.10,2013-03-20 17:07:00,
2013-03-20 18:22:00,54.8,38.0,29.73,SW,224,2.0,3.0,54,0.00,,,0.00,0,weatherlink.com 1.10,2013-03-20 17:22:00,
2013-03-20 18:52:00,53.3,39.0,29.74,North,360,0.0,1.0,58,0.00,,,0.00,0,weatherlink.com 1.10,2013-03-20 17:52:00,
2013-03-20 19:07:00,52.7,39.0,29.74,SW,231,0.0,1.0,60,0.00,,,0.00,0,weatherlink.com 1.10,2013-03-20 18:07:00,
2013-03-20 19:22:00,52.2,39.0,29.75,North,360,0.0,1.0,61,0.00,,,0.00,0,weatherlink.com 1.10,2013-03-20 18:22:00,
2013-03-20 20:07:00,52.5,40.0,29.75,SW,236,0.0,2.0,62,0.00,,,0.00,0,weatherlink.com 1.10,2013-03-20 19:07:00,
2013-03-20 20:22:00,52.7,40.0,29.75,WSW,238,0.0,3.0,63,0.00,,,0.00,0,weatherlink.com 1.10,2013-03-20 19:22:00,
2013-03-20 20:37:00,52.7,41.0,29.75,WSW,238,0.0,3.0,64,0.00,,,0.00,0,weatherlink.com 1.10,2013-03-20 19:37:00,
2013-03-20 20:52:00,52.8,41.0,29.75,SW,236,0.0,1.0,64,0.00,,,0.00,0,weatherlink.com 1.10,2013-03-20 19:52:00,
2013-03-20 21:07:00,52.8,41.0,29.75,SW,236,1.0,1.0,64,0.00,,,0.00,0,weatherlink.com 1.10,2013-03-20 20:07:00,
2013-03-20 21:22:00,52.8,40.0,29.75,WSW,238,0.0,3.0,63,0.00,,,0.00,0,weatherlink.com 1.10,2013-03-20 20:22:00,
2013-03-20 21:52:00,52.6,41.0,29.75,North,360,1.0,1.0,64,0.00,,,0.00,0,weatherlink.com 1.10,2013-03-20 20:52:00,
2013-03-20 22:07:00,52.5,41.0,29.75,WSW,237,0.0,1.0,65,0.00,,,0.00,0,weatherlink.com 1.10,2013-03-20 21:07:00,
2013-03-20 22:22:00,52.4,40.0,29.75,North,360,0.0,2.0,63,0.00,,,0.00,0,weatherlink.com 1.10,2013-03-20 21:22:00,
2013-03-20 22:53:00,52.3,41.0,29.76,SW,236,0.0,1.0,65,0.00,,,0.00,0,weatherlink.com 1.10,2013-03-20 21:53:00,
2013-03-20 23:07:00,52.1,41.0,29.75,SW,229,1.0,4.0,66,0.00,,,0.00,0,weatherlink.com 1.10,2013-03-20 22:07:00,
2013-03-20 23:22:00,51.9,41.0,29.75,SW,236,0.0,3.0,67,0.00,,,0.00,0,weatherlink.com 1.10,2013-03-20 22:22:00,
2013-03-20 23:37:00,51.8,42.0,29.75,WSW,237,0.0,0.0,69,0.00,,,0.00,0,weatherlink.com 1.10,2013-03-20 22:37:00,
2013-03-20 23:52:00,51.4,42.0,29.76,SW,235,0.0,0.0,71,0.00,,,0.00,0,weatherlink.com 1.10,2013-03-20 22:52:00,